Time;durP1;ratioP1;P1;durP2;ratioP2;P2;SDS_P1;SDS_P2;PMS_P1;PMS_P2;Temp;Humidity;BMP_temperature;BMP_pressure;BME280_temperature;BME280_humidity;BME280_pressure;Samples;Min_cycle;Max_cycle;Signal;HPM_P1;HPM_P2
2023/05/25 00:01:47;;;;;;;12.75;9.15;;;;;;;;;;5093770;28;20044;-67
2023/05/25 00:04:18;;;;;;;14.95;8.63;;;;;;;;;;5092963;28;20119;-67
2023/05/25 00:06:46;;;;;;;14.00;8.27;;;;;;;;;;5093422;28;20043;-67
2023/05/25 00:09:14;;;;;;;15.02;8.80;;;;;;;;;;5092882;28;20119;-67
2023/05/25 00:11:41;;;;;;;15.38;8.77;;;;;;;;;;5092924;28;20118;-67
2023/05/25 00:14:09;;;;;;;15.10;8.05;;;;;;;;;;5092930;28;20068;-67
2023/05/25 00:16:36;;;;;;;16.48;8.55;;;;;;;;;;5092955;28;20044;-67
2023/05/25 00:19:05;;;;;;;13.60;8.80;;;;;;;;;;5092972;28;20047;-67
2023/05/25 00:21:36;;;;;;;11.20;8.73;;;;;;;;;;5093473;28;20055;-67
2023/05/25 00:24:05;;;;;;;12.35;8.30;;;;;;;;;;5092783;28;20044;-67
2023/05/25 00:26:32;;;;;;;13.45;9.27;;;;;;;;;;5093001;28;20047;-67
2023/05/25 00:29:00;;;;;;;14.45;8.85;;;;;;;;;;5092783;28;20135;-67
2023/05/25 00:31:28;;;;;;;11.38;8.30;;;;;;;;;;5092634;28;20153;-68
2023/05/25 00:33:56;;;;;;;11.85;7.82;;;;;;;;;;5074949;28;20478;-67
2023/05/25 00:36:24;;;;;;;11.10;8.10;;;;;;;;;;5074344;28;20055;-67
2023/05/25 00:38:51;;;;;;;15.70;7.75;;;;;;;;;;5074533;28;20048;-67
2023/05/25 00:41:19;;;;;;;13.80;7.18;;;;;;;;;;5079904;28;20052;-67
2023/05/25 00:43:47;;;;;;;17.20;7.25;;;;;;;;;;5081235;28;20044;-67
2023/05/25 00:46:15;;;;;;;12.18;7.35;;;;;;;;;;5081457;28;20040;-67
2023/05/25 00:48:43;;;;;;;13.00;7.47;;;;;;;;;;5080887;28;20048;-67
2023/05/25 00:51:12;;;;;;;13.38;7.55;;;;;;;;;;5099651;28;20118;-68
2023/05/25 00:53:41;;;;;;;10.95;7.63;;;;;;;;;;5099100;28;20043;-67
2023/05/25 00:56:19;;;;;;;13.32;7.35;;;;;;;;;;5080939;28;20116;-67
2023/05/25 00:58:49;;;;;;;11.25;7.72;;;;;;;;;;5099242;28;20405;-67
2023/05/25 01:01:18;;;;;;;16.92;8.43;;;;;;;;;;5099181;28;20444;-67
2023/05/25 01:03:52;;;;;;;15.35;8.15;;;;;;;;;;5080785;28;20127;-67
2023/05/25 01:06:21;;;;;;;15.57;9.00;;;;;;;;;;5099014;28;20074;-67
2023/05/25 01:08:51;;;;;;;14.98;9.15;;;;;;;;;;5099153;28;20444;-67
2023/05/25 01:11:26;;;;;;;17.45;9.38;;;;;;;;;;5080990;28;20048;-67
2023/05/25 01:13:54;;;;;;;13.50;8.93;;;;;;;;;;5098989;28;20043;-67
2023/05/25 01:16:22;;;;;;;12.23;9.05;;;;;;;;;;5098745;28;20039;-67
2023/05/25 01:18:51;;;;;;;17.10;9.40;;;;;;;;;;5080886;28;20040;-67
2023/05/25 01:21:19;;;;;;;21.63;9.20;;;;;;;;;;5080752;28;20405;-67
2023/05/25 01:23:49;;;;;;;18.85;10.32;;;;;;;;;;5080910;28;20044;-67
2023/05/25 01:26:17;;;;;;;15.85;9.90;;;;;;;;;;5081433;28;20055;-67
2023/05/25 01:28:49;;;;;;;15.00;9.45;;;;;;;;;;5081394;28;20043;-67
2023/05/25 01:31:18;;;;;;;12.20;8.90;;;;;;;;;;5080615;28;20098;-67
2023/05/25 01:33:46;;;;;;;15.43;8.93;;;;;;;;;;5098763;28;20036;-67
2023/05/25 01:36:14;;;;;;;16.67;9.40;;;;;;;;;;5081577;28;20044;-68
2023/05/25 01:38:41;;;;;;;16.92;9.52;;;;;;;;;;5080771;28;20044;-67
2023/05/25 01:41:10;;;;;;;16.98;9.50;;;;;;;;;;5081017;28;20044;-67
2023/05/25 01:43:37;;;;;;;17.80;9.48;;;;;;;;;;5080998;28;20043;-67
2023/05/25 01:46:19;;;;;;;18.33;8.68;;;;;;;;;;5081492;28;20036;-67
2023/05/25 01:48:52;;;;;;;15.20;8.20;;;;;;;;;;5081494;28;20589;-67
2023/05/25 01:51:39;;;;;;;15.20;8.30;;;;;;;;;;5098138;28;20432;-67
2023/05/25 01:54:11;;;;;;;15.18;8.38;;;;;;;;;;5069366;28;20475;-67
2023/05/25 01:56:41;;;;;;;14.48;8.05;;;;;;;;;;5097340;28;20075;-67
2023/05/25 01:59:09;;;;;;;11.10;8.65;;;;;;;;;;5078761;28;20109;-67
2023/05/25 02:01:37;;;;;;;10.73;7.97;;;;;;;;;;5077492;28;20135;-67
2023/05/25 02:04:05;;;;;;;14.95;7.65;;;;;;;;;;5077859;28;20085;-67
2023/05/25 02:06:32;;;;;;;11.77;7.70;;;;;;;;;;5078308;28;20051;-67
2023/05/25 02:09:05;;;;;;;14.55;7.72;;;;;;;;;;5077486;28;20043;-67
2023/05/25 02:11:32;;;;;;;15.85;7.70;;;;;;;;;;5077630;28;20044;-67
2023/05/25 02:14:00;;;;;;;11.30;7.72;;;;;;;;;;5077106;28;20063;-67
2023/05/25 02:16:28;;;;;;;15.68;8.85;;;;;;;;;;5096071;28;20032;-67
2023/05/25 02:18:59;;;;;;;15.07;8.45;;;;;;;;;;5076913;28;20040;-67
2023/05/25 02:21:27;;;;;;;12.65;8.32;;;;;;;;;;5077080;28;20109;-67
2023/05/25 02:23:56;;;;;;;15.05;8.50;;;;;;;;;;5094788;28;20032;-67
2023/05/25 02:26:25;;;;;;;15.00;8.82;;;;;;;;;;5094822;28;20489;-67
2023/05/25 02:28:52;;;;;;;13.90;8.38;;;;;;;;;;5076655;28;20446;-67
2023/05/25 02:31:20;;;;;;;12.73;8.43;;;;;;;;;;5076736;28;20044;-67
2023/05/25 02:33:47;;;;;;;17.88;8.48;;;;;;;;;;5076571;28;20062;-67
2023/05/25 02:36:15;;;;;;;14.52;9.00;;;;;;;;;;5076367;28;20172;-67
2023/05/25 02:38:43;;;;;;;11.57;8.73;;;;;;;;;;5076621;28;20040;-67
2023/05/25 02:41:10;;;;;;;13.27;8.43;;;;;;;;;;5076393;28;20047;-67
2023/05/25 02:43:38;;;;;;;15.45;8.77;;;;;;;;;;5094654;28;20036;-67
2023/05/25 02:46:05;;;;;;;13.05;8.90;;;;;;;;;;5076175;28;20063;-67
2023/05/25 02:48:33;;;;;;;15.45;8.80;;;;;;;;;;5076337;28;20048;-68
2023/05/25 02:51:02;;;;;;;14.98;9.20;;;;;;;;;;5076133;28;20055;-67
2023/05/25 02:53:30;;;;;;;14.05;9.27;;;;;;;;;;5076340;28;20078;-67
2023/05/25 02:55:59;;;;;;;18.67;9.57;;;;;;;;;;5076414;28;20059;-67
2023/05/25 02:58:30;;;;;;;15.98;9.38;;;;;;;;;;5076127;28;20045;-67
2023/05/25 03:01:18;;;;;;;17.70;9.73;;;;;;;;;;5093547;28;20060;-68
2023/05/25 03:03:51;;;;;;;17.17;9.82;;;;;;;;;;5075886;28;20501;-67
2023/05/25 03:06:21;;;;;;;15.05;9.38;;;;;;;;;;5075810;28;20509;-67
2023/05/25 03:08:53;;;;;;;19.25;9.60;;;;;;;;;;5075857;28;20075;-67
2023/05/25 03:11:21;;;;;;;16.45;9.80;;;;;;;;;;5094351;28;20059;-67
2023/05/25 03:13:50;;;;;;;17.15;9.60;;;;;;;;;;5076069;28;20036;-67
2023/05/25 03:16:19;;;;;;;14.98;9.23;;;;;;;;;;5076137;28;20054;-67
2023/05/25 03:18:47;;;;;;;19.20;10.18;;;;;;;;;;5075862;28;20040;-67
2023/05/25 03:21:15;;;;;;;17.40;9.82;;;;;;;;;;5076233;28;20066;-67
2023/05/25 03:23:43;;;;;;;17.90;9.93;;;;;;;;;;5075619;28;20048;-67
2023/05/25 03:26:11;;;;;;;12.63;9.32;;;;;;;;;;5094439;28;20102;-67
2023/05/25 03:28:39;;;;;;;16.38;9.30;;;;;;;;;;5075927;28;20040;-67
2023/05/25 03:31:07;;;;;;;20.75;9.80;;;;;;;;;;5073168;28;20102;-68
2023/05/25 03:33:34;;;;;;;12.95;9.32;;;;;;;;;;5055456;28;20478;-68
2023/05/25 03:36:06;;;;;;;15.45;9.93;;;;;;;;;;5055137;28;20055;-68
2023/05/25 03:38:34;;;;;;;17.92;9.50;;;;;;;;;;5055494;28;20072;-68
2023/05/25 03:41:01;;;;;;;20.40;9.60;;;;;;;;;;5055714;28;20040;-68
2023/05/25 03:43:29;;;;;;;17.98;9.73;;;;;;;;;;5055184;28;20135;-68
2023/05/25 03:45:57;;;;;;;16.35;9.25;;;;;;;;;;5073111;28;20119;-68
2023/05/25 03:48:24;;;;;;;15.07;9.00;;;;;;;;;;5055458;28;20067;-67
2023/05/25 03:50:53;;;;;;;16.27;9.18;;;;;;;;;;5055721;28;20062;-67
2023/05/25 03:53:21;;;;;;;16.02;8.52;;;;;;;;;;5055534;28;20106;-67
2023/05/25 03:55:50;;;;;;;14.30;8.90;;;;;;;;;;5055282;28;20051;-68
2023/05/25 03:58:19;;;;;;;16.40;8.90;;;;;;;;;;5055868;28;20046;-67
2023/05/25 04:00:50;;;;;;;11.32;8.48;;;;;;;;;;5055483;28;20064;-68
2023/05/25 04:03:19;;;;;;;16.35;8.10;;;;;;;;;;5073263;28;20048;-68
2023/05/25 04:05:47;;;;;;;12.10;8.20;;;;;;;;;;5071846;28;20036;-67
2023/05/25 04:08:18;;;;;;;18.80;8.98;;;;;;;;;;5055258;28;20044;-67
2023/05/25 04:10:46;;;;;;;17.88;8.57;;;;;;;;;;5053937;28;20059;-67
2023/05/25 04:13:14;;;;;;;14.40;8.98;;;;;;;;;;5073820;28;20045;-68
2023/05/25 04:15:41;;;;;;;16.15;8.93;;;;;;;;;;5054350;28;20045;-67
2023/05/25 04:18:19;;;;;;;12.82;8.50;;;;;;;;;;5054648;28;20047;-67
2023/05/25 04:20:48;;;;;;;17.90;9.05;;;;;;;;;;5054899;28;20045;-67
2023/05/25 04:23:18;;;;;;;14.80;8.88;;;;;;;;;;5054436;28;20036;-67
2023/05/25 04:25:46;;;;;;;12.68;8.68;;;;;;;;;;5053479;28;20113;-67
2023/05/25 04:28:14;;;;;;;12.10;8.38;;;;;;;;;;5052818;28;20623;-68
2023/05/25 04:31:08;;;;;;;13.70;8.38;;;;;;;;;;5039098;28;20066;-67
2023/05/25 04:34:01;;;;;;;16.83;9.75;;;;;;;;;;5052526;28;20048;-67
2023/05/25 04:36:31;;;;;;;11.93;8.40;;;;;;;;;;5052747;28;20056;-68
2023/05/25 04:39:02;;;;;;;14.20;8.32;;;;;;;;;;5049496;28;20055;-67
2023/05/25 04:41:32;;;;;;;18.38;8.60;;;;;;;;;;5051397;28;20060;-67
2023/05/25 04:44:04;;;;;;;13.13;8.25;;;;;;;;;;5051236;28;20040;-67
2023/05/25 04:46:43;;;;;;;15.48;8.27;;;;;;;;;;5050980;28;20076;-67
2023/05/25 04:49:25;;;;;;;15.18;7.93;;;;;;;;;;5051234;28;20059;-67
2023/05/25 04:51:53;;;;;;;12.55;8.02;;;;;;;;;;5051226;28;20041;-69
2023/05/25 04:54:20;;;;;;;12.23;7.90;;;;;;;;;;5052621;28;20036;-67
2023/05/25 04:56:48;;;;;;;14.05;7.30;;;;;;;;;;5051501;28;20049;-67
2023/05/25 04:59:15;;;;;;;12.00;7.65;;;;;;;;;;5051809;28;20041;-67
2023/05/25 05:01:44;;;;;;;9.98;7.25;;;;;;;;;;5051253;28;20041;-68
2023/05/25 05:04:15;;;;;;;10.52;6.68;;;;;;;;;;5050921;28;20056;-67
2023/05/25 05:06:43;;;;;;;11.32;6.55;;;;;;;;;;5050926;28;20053;-68
2023/05/25 05:09:17;;;;;;;10.55;6.40;;;;;;;;;;5050966;28;20088;-67
2023/05/25 05:11:46;;;;;;;10.93;6.65;;;;;;;;;;5050755;28;20052;-67
2023/05/25 05:14:14;;;;;;;8.15;6.30;;;;;;;;;;5051529;28;20048;-68
2023/05/25 05:16:46;;;;;;;12.25;6.25;;;;;;;;;;5051537;28;20044;-68
2023/05/25 05:19:14;;;;;;;10.82;7.05;;;;;;;;;;5050836;28;20052;-68
2023/05/25 05:21:42;;;;;;;11.23;7.35;;;;;;;;;;5050729;28;20049;-67
2023/05/25 05:24:09;;;;;;;13.45;6.60;;;;;;;;;;5051314;28;20079;-68
2023/05/25 05:26:38;;;;;;;10.55;6.30;;;;;;;;;;5050709;28;20041;-68
2023/05/25 05:29:26;;;;;;;9.50;5.57;;;;;;;;;;5055337;28;20037;-67
2023/05/25 05:31:55;;;;;;;9.02;5.65;;;;;;;;;;5063300;28;20040;-68
2023/05/25 05:34:23;;;;;;;7.90;6.18;;;;;;;;;;5074817;28;20131;-68
2023/05/25 05:36:50;;;;;;;9.95;6.32;;;;;;;;;;5075521;28;20504;-68
2023/05/25 05:39:27;;;;;;;7.07;5.75;;;;;;;;;;5077667;28;20050;-68
2023/05/25 05:41:55;;;;;;;10.30;6.38;;;;;;;;;;5078074;28;20406;-68
2023/05/25 05:44:23;;;;;;;6.50;5.80;;;;;;;;;;5064936;28;20036;-68
2023/05/25 05:46:58;;;;;;;11.80;6.18;;;;;;;;;;5059798;28;20044;-68
2023/05/25 05:49:28;;;;;;;10.18;6.22;;;;;;;;;;5070311;28;20036;-68
2023/05/25 05:51:56;;;;;;;8.73;5.88;;;;;;;;;;5077294;28;20375;-68
2023/05/25 05:54:26;;;;;;;14.48;6.32;;;;;;;;;;5077396;28;20040;-68
2023/05/25 05:56:55;;;;;;;11.57;5.80;;;;;;;;;;5077334;28;20472;-68
2023/05/25 05:59:23;;;;;;;9.93;5.80;;;;;;;;;;5077234;28;20036;-67
2023/05/25 06:01:50;;;;;;;9.73;6.15;;;;;;;;;;5077259;28;20048;-67
2023/05/25 06:04:18;;;;;;;9.48;5.95;;;;;;;;;;5077226;28;20043;-67
2023/05/25 06:06:46;;;;;;;10.15;6.00;;;;;;;;;;5077491;28;20085;-68
2023/05/25 06:09:13;;;;;;;7.75;5.90;;;;;;;;;;5076833;28;20032;-68
2023/05/25 06:11:41;;;;;;;9.82;5.80;;;;;;;;;;5095007;28;20225;-68
2023/05/25 06:14:10;;;;;;;7.97;5.57;;;;;;;;;;5077572;28;20044;-68
2023/05/25 06:16:37;;;;;;;7.53;5.55;;;;;;;;;;5077519;28;20458;-68
2023/05/25 06:19:05;;;;;;;8.57;5.47;;;;;;;;;;5095009;28;20135;-69
2023/05/25 06:21:32;;;;;;;10.98;5.22;;;;;;;;;;5076948;28;20059;-69
2023/05/25 06:24:00;;;;;;;8.05;5.55;;;;;;;;;;5076798;28;20383;-69
2023/05/25 06:26:27;;;;;;;11.52;5.65;;;;;;;;;;5076664;28;20397;-68
2023/05/25 06:28:56;;;;;;;11.63;5.03;;;;;;;;;;5076866;28;20047;-68
2023/05/25 06:31:24;;;;;;;8.07;5.32;;;;;;;;;;5076702;28;20043;-68
2023/05/25 06:33:52;;;;;;;8.63;5.97;;;;;;;;;;5076680;28;20067;-68
2023/05/25 06:36:20;;;;;;;10.13;5.97;;;;;;;;;;5076519;28;20066;-68
2023/05/25 06:38:49;;;;;;;9.63;5.45;;;;;;;;;;5075845;28;20079;-68
2023/05/25 06:41:18;;;;;;;11.45;6.18;;;;;;;;;;5076608;28;20063;-69
2023/05/25 06:43:46;;;;;;;9.63;5.40;;;;;;;;;;5076301;28;20079;-68
2023/05/25 06:46:30;;;;;;;9.23;6.00;;;;;;;;;;5076472;28;20040;-68
2023/05/25 06:48:59;;;;;;;8.00;5.72;;;;;;;;;;5076072;28;20047;-67
2023/05/25 06:51:27;;;;;;;9.55;5.80;;;;;;;;;;5093908;28;20539;-67
2023/05/25 06:53:55;;;;;;;8.00;5.50;;;;;;;;;;5075755;28;20052;-68
2023/05/25 06:56:23;;;;;;;10.13;6.10;;;;;;;;;;5094265;28;20036;-68
2023/05/25 06:58:51;;;;;;;7.38;5.70;;;;;;;;;;5094553;28;20071;-68
2023/05/25 07:01:18;;;;;;;10.02;6.55;;;;;;;;;;5094383;28;20036;-68
2023/05/25 07:03:46;;;;;;;11.57;7.25;;;;;;;;;;5094234;28;20093;-67
2023/05/25 07:06:15;;;;;;;8.73;6.03;;;;;;;;;;5094081;28;20055;-67
2023/05/25 07:08:43;;;;;;;7.88;6.00;;;;;;;;;;5093103;28;20048;-67
2023/05/25 07:11:12;;;;;;;10.77;5.57;;;;;;;;;;5072928;28;20041;-68
2023/05/25 07:13:40;;;;;;;8.10;5.70;;;;;;;;;;5055613;28;20045;-70
2023/05/25 07:16:08;;;;;;;11.38;5.72;;;;;;;;;;5055898;28;20115;-68
2023/05/25 07:18:38;;;;;;;8.02;6.30;;;;;;;;;;5073532;28;20501;-67
2023/05/25 07:21:08;;;;;;;9.23;6.70;;;;;;;;;;5092245;28;20448;-67
2023/05/25 07:23:36;;;;;;;8.82;6.10;;;;;;;;;;5093984;28;20462;-67
2023/05/25 07:26:04;;;;;;;7.32;6.30;;;;;;;;;;5093514;28;20032;-67
2023/05/25 07:28:32;;;;;;;8.95;5.90;;;;;;;;;;5093625;28;20093;-69
2023/05/25 07:31:00;;;;;;;8.63;5.70;;;;;;;;;;5075278;28;20050;-68
2023/05/25 07:33:28;;;;;;;9.57;5.68;;;;;;;;;;5075593;28;20040;-69
2023/05/25 07:35:55;;;;;;;7.60;5.80;;;;;;;;;;5075506;28;20032;-68
2023/05/25 07:38:23;;;;;;;9.90;5.85;;;;;;;;;;5092874;28;20417;-69
2023/05/25 07:40:51;;;;;;;8.38;6.25;;;;;;;;;;5075544;28;20040;-67
2023/05/25 07:43:20;;;;;;;7.60;5.88;;;;;;;;;;5075236;28;20040;-67
2023/05/25 07:45:47;;;;;;;7.70;5.40;;;;;;;;;;5093362;28;20040;-68
2023/05/25 07:48:15;;;;;;;7.05;5.10;;;;;;;;;;5093081;28;20406;-67
2023/05/25 07:50:42;;;;;;;6.68;5.05;;;;;;;;;;5092427;28;20100;-67
2023/05/25 07:53:10;;;;;;;9.43;6.40;;;;;;;;;;5093217;28;20617;-66
2023/05/25 07:55:38;;;;;;;9.10;6.20;;;;;;;;;;5074862;28;20044;-68
2023/05/25 07:58:06;;;;;;;9.02;5.72;;;;;;;;;;5092991;28;20047;-68
2023/05/25 08:00:33;;;;;;;7.13;5.22;;;;;;;;;;5092954;28;20105;-68
2023/05/25 08:03:01;;;;;;;6.20;4.97;;;;;;;;;;5093009;28;20090;-67
2023/05/25 08:05:29;;;;;;;7.30;4.90;;;;;;;;;;5092660;28;20119;-67
2023/05/25 08:07:56;;;;;;;8.07;4.47;;;;;;;;;;5085437;28;20036;-67
2023/05/25 08:10:30;;;;;;;7.30;4.20;;;;;;;;;;5073327;28;20486;-68
2023/05/25 08:12:58;;;;;;;6.13;4.55;;;;;;;;;;5085324;28;20063;-68
2023/05/25 08:15:25;;;;;;;6.75;4.75;;;;;;;;;;5092266;28;20513;-66
2023/05/25 08:17:55;;;;;;;7.28;4.80;;;;;;;;;;5092572;28;20044;-66
2023/05/25 08:20:24;;;;;;;7.45;6.07;;;;;;;;;;5092571;28;20118;-67
2023/05/25 08:22:52;;;;;;;6.70;4.97;;;;;;;;;;5092512;28;20048;-68
2023/05/25 08:25:20;;;;;;;6.53;5.35;;;;;;;;;;5092505;28;20119;-68
2023/05/25 08:27:47;;;;;;;8.52;5.60;;;;;;;;;;5092394;28;20517;-67
2023/05/25 08:30:15;;;;;;;8.02;5.70;;;;;;;;;;5092371;28;20044;-67
2023/05/25 08:32:42;;;;;;;8.80;5.72;;;;;;;;;;5092651;28;20054;-67
2023/05/25 08:35:12;;;;;;;6.57;5.13;;;;;;;;;;5092273;28;20056;-67
2023/05/25 08:37:42;;;;;;;6.63;5.25;;;;;;;;;;5091975;28;20083;-66
2023/05/25 08:40:14;;;;;;;6.85;5.60;;;;;;;;;;5092348;28;20493;-66
2023/05/25 08:42:42;;;;;;;8.73;6.10;;;;;;;;;;5092420;28;20119;-67
2023/05/25 08:45:10;;;;;;;7.65;5.40;;;;;;;;;;5092364;28;20040;-66
2023/05/25 08:47:58;;;;;;;7.45;5.35;;;;;;;;;;5092176;28;20039;-67
2023/05/25 08:50:27;;;;;;;7.78;4.75;;;;;;;;;;5092162;28;20729;-66
2023/05/25 08:52:55;;;;;;;11.23;5.47;;;;;;;;;;5092076;28;20074;-66
2023/05/25 08:55:24;;;;;;;7.80;5.30;;;;;;;;;;5092142;28;20040;-66
2023/05/25 08:57:57;;;;;;;7.22;5.60;;;;;;;;;;5091792;28;20040;-66
2023/05/25 09:00:51;;;;;;;9.25;4.93;;;;;;;;;;5092061;28;20128;-67
2023/05/25 09:03:19;;;;;;;8.00;5.70;;;;;;;;;;5093898;28;20105;-67
2023/05/25 09:05:47;;;;;;;6.07;4.53;;;;;;;;;;5077916;28;20127;-66
2023/05/25 09:08:15;;;;;;;9.55;5.38;;;;;;;;;;5095986;28;20051;-66
2023/05/25 09:10:42;;;;;;;7.75;5.65;;;;;;;;;;5078015;28;20036;-67
2023/05/25 09:13:10;;;;;;;6.60;5.03;;;;;;;;;;5096050;28;20040;-66
2023/05/25 09:15:49;;;;;;;7.28;5.47;;;;;;;;;;5095824;28;20074;-66
2023/05/25 09:18:16;;;;;;;7.68;5.88;;;;;;;;;;5095489;28;20047;-67
2023/05/25 09:20:44;;;;;;;7.47;5.50;;;;;;;;;;5077370;28;20044;-67
2023/05/25 09:23:14;;;;;;;8.25;5.00;;;;;;;;;;5095799;28;20079;-67
2023/05/25 09:25:43;;;;;;;6.78;4.60;;;;;;;;;;5095692;28;20040;-67
2023/05/25 09:28:10;;;;;;;7.70;4.38;;;;;;;;;;5095548;28;20570;-68
2023/05/25 09:30:41;;;;;;;5.97;4.30;;;;;;;;;;5095356;28;20042;-68
2023/05/25 09:33:12;;;;;;;5.18;4.30;;;;;;;;;;5095353;28;20249;-68
2023/05/25 09:35:40;;;;;;;6.32;4.28;;;;;;;;;;5095689;28;20040;-69
2023/05/25 09:38:08;;;;;;;5.32;4.10;;;;;;;;;;5095448;28;20052;-66
2023/05/25 09:40:37;;;;;;;8.45;5.75;;;;;;;;;;5085345;28;20064;-68
2023/05/25 09:43:05;;;;;;;6.30;4.03;;;;;;;;;;5057685;28;20047;-67
2023/05/25 09:45:32;;;;;;;8.85;4.20;;;;;;;;;;5076604;28;20066;-68
2023/05/25 09:48:02;;;;;;;6.70;4.60;;;;;;;;;;5058608;28;20389;-67
2023/05/25 09:50:29;;;;;;;9.13;4.43;;;;;;;;;;5075531;28;20039;-68
2023/05/25 09:52:58;;;;;;;7.55;4.10;;;;;;;;;;5075688;28;20102;-68
2023/05/25 09:55:29;;;;;;;6.32;3.78;;;;;;;;;;5075334;28;20036;-67
2023/05/25 09:58:17;;;;;;;6.60;4.15;;;;;;;;;;5075407;28;20044;-67
2023/05/25 10:00:44;;;;;;;8.90;5.55;;;;;;;;;;5075513;28;20033;-67
2023/05/25 10:03:14;;;;;;;6.60;3.50;;;;;;;;;;5075528;28;20041;-67
2023/05/25 10:05:41;;;;;;;7.28;5.75;;;;;;;;;;5075989;28;20037;-67
2023/05/25 10:08:10;;;;;;;8.43;6.03;;;;;;;;;;5069311;28;20090;-65
2023/05/25 10:10:38;;;;;;;5.40;3.90;;;;;;;;;;5095656;28;20040;-67
2023/05/25 10:13:10;;;;;;;7.70;4.20;;;;;;;;;;5094291;28;20113;-67
2023/05/25 10:15:39;;;;;;;4.10;3.58;;;;;;;;;;5094633;28;20028;-67
2023/05/25 10:18:08;;;;;;;6.47;3.85;;;;;;;;;;5095107;28;20048;-67
2023/05/25 10:20:37;;;;;;;5.43;3.72;;;;;;;;;;5094780;28;20060;-67
2023/05/25 10:23:15;;;;;;;7.32;3.30;;;;;;;;;;5095370;28;20397;-67
2023/05/25 10:25:50;;;;;;;6.50;3.75;;;;;;;;;;5076757;28;20040;-68
2023/05/25 10:28:36;;;;;;;5.28;3.30;;;;;;;;;;5094435;28;20097;-67
2023/05/25 10:31:03;;;;;;;5.03;3.90;;;;;;;;;;5094385;28;20123;-67
2023/05/25 10:33:32;;;;;;;5.63;3.92;;;;;;;;;;5076527;28;20044;-67
2023/05/25 10:36:01;;;;;;;5.85;4.05;;;;;;;;;;5094678;28;20446;-67
2023/05/25 10:38:38;;;;;;;8.15;4.00;;;;;;;;;;5093634;28;20052;-68
2023/05/25 10:41:08;;;;;;;6.25;4.25;;;;;;;;;;5094361;28;20119;-68
2023/05/25 10:43:36;;;;;;;8.40;3.72;;;;;;;;;;5094197;28;20078;-68
2023/05/25 10:46:05;;;;;;;4.78;3.33;;;;;;;;;;5094149;28;20051;-67
2023/05/25 10:48:37;;;;;;;5.32;3.67;;;;;;;;;;5093886;28;20105;-68
2023/05/25 10:51:08;;;;;;;6.47;3.47;;;;;;;;;;5083711;28;20089;-67
2023/05/25 10:53:38;;;;;;;7.50;3.75;;;;;;;;;;5093898;28;20058;-67
2023/05/25 10:56:07;;;;;;;5.05;3.58;;;;;;;;;;5076667;28;20043;-68
2023/05/25 10:58:35;;;;;;;5.93;3.30;;;;;;;;;;5093805;28;20075;-67
2023/05/25 11:01:06;;;;;;;4.95;3.10;;;;;;;;;;5094700;28;20050;-69
2023/05/25 11:03:52;;;;;;;4.88;3.40;;;;;;;;;;5094266;28;20105;-69
2023/05/25 11:06:20;;;;;;;8.95;6.10;;;;;;;;;;5067620;28;20040;-68
2023/05/25 11:08:55;;;;;;;7.57;4.25;;;;;;;;;;5093931;28;20052;-68
2023/05/25 11:11:43;;;;;;;5.28;3.45;;;;;;;;;;5093997;28;20455;-68
2023/05/25 11:14:30;;;;;;;4.78;3.20;;;;;;;;;;5093505;28;20600;-68
2023/05/25 11:17:03;;;;;;;3.72;2.90;;;;;;;;;;5093516;28;20036;-69
2023/05/25 11:19:50;;;;;;;3.28;2.90;;;;;;;;;;5093474;28;20157;-69
2023/05/25 11:22:19;;;;;;;4.22;3.00;;;;;;;;;;5093456;28;20036;-69
2023/05/25 11:24:51;;;;;;;6.15;2.97;;;;;;;;;;5093249;28;20028;-68
2023/05/25 11:27:26;;;;;;;6.68;2.88;;;;;;;;;;5093246;28;20539;-69
2023/05/25 11:29:57;;;;;;;7.53;3.30;;;;;;;;;;5093815;28;20036;-69
2023/05/25 11:32:26;;;;;;;7.03;3.50;;;;;;;;;;5093371;28;20084;-67
2023/05/25 11:34:54;;;;;;;4.03;3.00;;;;;;;;;;5092050;28;20122;-68
2023/05/25 11:37:27;;;;;;;7.20;3.53;;;;;;;;;;5064619;28;20056;-68
2023/05/25 11:39:55;;;;;;;6.73;3.50;;;;;;;;;;5072759;28;20052;-68
2023/05/25 11:42:23;;;;;;;6.88;3.25;;;;;;;;;;5072627;28;20322;-67
2023/05/25 11:44:52;;;;;;;4.30;3.30;;;;;;;;;;5072716;28;20368;-67
2023/05/25 11:47:23;;;;;;;7.57;3.60;;;;;;;;;;5072645;28;20036;-67
2023/05/25 11:49:51;;;;;;;4.03;3.60;;;;;;;;;;5072534;28;20131;-67
2023/05/25 11:52:20;;;;;;;8.48;5.63;;;;;;;;;;5072301;28;20433;-68
2023/05/25 11:54:48;;;;;;;7.85;6.07;;;;;;;;;;5072659;28;20048;-67
2023/05/25 11:57:17;;;;;;;11.20;5.65;;;;;;;;;;5072160;28;20037;-67
2023/05/25 11:59:48;;;;;;;6.25;4.10;;;;;;;;;;5072450;28;20052;-68
2023/05/25 12:02:16;;;;;;;5.32;3.63;;;;;;;;;;5072186;28;20033;-67
2023/05/25 12:04:56;;;;;;;10.05;6.85;;;;;;;;;;5072600;28;20063;-68
2023/05/25 12:07:24;;;;;;;8.15;4.80;;;;;;;;;;5072150;28;20040;-67
2023/05/25 12:10:03;;;;;;;5.78;3.70;;;;;;;;;;5072410;28;20093;-67
2023/05/25 12:12:37;;;;;;;5.28;3.75;;;;;;;;;;5072074;28;20041;-67
2023/05/25 12:15:04;;;;;;;5.55;4.35;;;;;;;;;;5072498;28;20473;-68
2023/05/25 12:17:33;;;;;;;4.93;3.58;;;;;;;;;;5063843;28;20041;-67
2023/05/25 12:20:00;;;;;;;7.60;5.00;;;;;;;;;;5055227;28;20032;-67
2023/05/25 12:22:28;;;;;;;6.88;4.25;;;;;;;;;;5054309;28;20040;-67
2023/05/25 12:24:56;;;;;;;10.88;5.43;;;;;;;;;;5054143;28;20394;-68
2023/05/25 12:27:23;;;;;;;6.05;3.95;;;;;;;;;;5063408;28;20479;-68
2023/05/25 12:29:51;;;;;;;23.33;17.77;;;;;;;;;;5068812;28;20098;-67
2023/05/25 12:32:19;;;;;;;37.05;26.00;;;;;;;;;;5069316;28;20036;-66
2023/05/25 12:34:47;;;;;;;5.53;3.30;;;;;;;;;;5050272;28;20032;-66
2023/05/25 12:37:19;;;;;;;6.45;4.82;;;;;;;;;;5071535;28;20145;-66
2023/05/25 12:39:46;;;;;;;8.48;4.55;;;;;;;;;;5053722;28;20486;-66
2023/05/25 12:42:17;;;;;;;5.93;3.40;;;;;;;;;;5072799;28;20040;-66
2023/05/25 12:44:45;;;;;;;5.50;4.28;;;;;;;;;;5071724;28;20109;-66
2023/05/25 12:47:18;;;;;;;7.70;4.20;;;;;;;;;;5071626;28;20106;-66
2023/05/25 12:49:50;;;;;;;8.63;4.03;;;;;;;;;;5072152;28;20040;-66
2023/05/25 12:52:37;;;;;;;6.43;5.00;;;;;;;;;;5071819;28;20062;-66
2023/05/25 12:55:20;;;;;;;9.52;6.10;;;;;;;;;;5062635;28;20072;-66
2023/05/25 12:57:51;;;;;;;8.90;6.97;;;;;;;;;;5053538;28;20449;-66
2023/05/25 13:00:23;;;;;;;6.28;4.75;;;;;;;;;;5071663;28;20045;-66
2023/05/25 13:02:53;;;;;;;6.13;4.05;;;;;;;;;;5053797;28;20094;-66
2023/05/25 13:05:21;;;;;;;6.53;3.63;;;;;;;;;;5071903;28;20513;-66
2023/05/25 13:07:50;;;;;;;6.55;3.60;;;;;;;;;;5071401;28;20055;-66
2023/05/25 13:10:17;;;;;;;5.80;4.38;;;;;;;;;;5071440;28;20048;-66
2023/05/25 13:12:46;;;;;;;6.15;4.20;;;;;;;;;;5077332;28;20436;-66
2023/05/25 13:15:14;;;;;;;4.78;3.92;;;;;;;;;;5071718;28;20048;-65
2023/05/25 13:17:42;;;;;;;6.72;3.60;;;;;;;;;;5087656;28;20047;-66
2023/05/25 13:20:13;;;;;;;10.30;4.75;;;;;;;;;;5092334;28;20051;-67
2023/05/25 13:22:43;;;;;;;10.75;3.97;;;;;;;;;;5092185;28;20044;-66
2023/05/25 13:25:12;;;;;;;12.25;3.97;;;;;;;;;;5093163;28;20040;-67
2023/05/25 13:27:43;;;;;;;11.02;4.00;;;;;;;;;;5091995;28;20036;-67
2023/05/25 13:30:12;;;;;;;10.85;3.85;;;;;;;;;;5073455;28;20110;-67
2023/05/25 13:32:41;;;;;;;13.75;9.23;;;;;;;;;;5073676;28;20036;-66
2023/05/25 13:35:17;;;;;;;16.33;11.35;;;;;;;;;;5073638;28;20044;-67
2023/05/25 13:37:45;;;;;;;9.95;4.20;;;;;;;;;;5091792;28;20135;-66
2023/05/25 13:40:12;;;;;;;7.13;4.40;;;;;;;;;;5079624;28;20391;-66
2023/05/25 13:42:40;;;;;;;7.20;3.97;;;;;;;;;;5091869;28;20041;-65
2023/05/25 13:45:08;;;;;;;10.45;4.78;;;;;;;;;;5073496;28;20040;-65
2023/05/25 13:47:36;;;;;;;7.20;4.50;;;;;;;;;;5091655;28;20050;-67
2023/05/25 13:50:03;;;;;;;8.18;4.57;;;;;;;;;;5095644;28;20048;-66
2023/05/25 13:52:31;;;;;;;7.68;5.03;;;;;;;;;;5094964;28;20071;-67
2023/05/25 13:54:59;;;;;;;9.82;4.45;;;;;;;;;;5095158;28;20040;-68
2023/05/25 13:57:26;;;;;;;9.13;4.72;;;;;;;;;;5095408;28;20040;-67
2023/05/25 13:59:54;;;;;;;8.65;4.57;;;;;;;;;;5095281;28;20131;-71
2023/05/25 14:02:21;;;;;;;6.07;4.25;;;;;;;;;;5096276;28;20036;-69
2023/05/25 14:04:49;;;;;;;8.55;4.78;;;;;;;;;;5076899;28;20051;-67
2023/05/25 14:07:17;;;;;;;14.00;8.10;;;;;;;;;;5095140;28;20032;-71
2023/05/25 14:09:44;;;;;;;7.13;4.10;;;;;;;;;;5076646;28;20164;-70
2023/05/25 14:12:12;;;;;;;8.90;5.18;;;;;;;;;;5094991;28;20040;-69
2023/05/25 14:14:40;;;;;;;10.32;4.88;;;;;;;;;;5094855;28;20040;-69
2023/05/25 14:17:08;;;;;;;7.07;4.38;;;;;;;;;;5077254;28;20047;-68
2023/05/25 14:19:36;;;;;;;7.50;3.90;;;;;;;;;;5094382;28;20038;-69
2023/05/25 14:22:04;;;;;;;7.85;4.32;;;;;;;;;;5094744;28;20050;-69
2023/05/25 14:24:40;;;;;;;7.72;4.10;;;;;;;;;;5094723;28;20052;-69
2023/05/25 14:27:08;;;;;;;7.43;4.57;;;;;;;;;;5094973;28;20098;-68
2023/05/25 14:29:36;;;;;;;9.73;4.82;;;;;;;;;;5094709;28;20036;-69
2023/05/25 14:32:03;;;;;;;9.75;5.60;;;;;;;;;;5094523;28;20490;-69
2023/05/25 14:34:31;;;;;;;9.88;4.57;;;;;;;;;;5094423;28;20040;-69
2023/05/25 14:36:59;;;;;;;6.72;4.07;;;;;;;;;;5080168;28;20040;-68
2023/05/25 14:39:26;;;;;;;5.82;3.33;;;;;;;;;;5094189;28;20059;-68
2023/05/25 14:41:54;;;;;;;5.82;3.55;;;;;;;;;;5076781;28;20056;-69
2023/05/25 14:44:22;;;;;;;7.82;3.47;;;;;;;;;;5075984;28;20402;-69
2023/05/25 14:46:49;;;;;;;6.07;3.35;;;;;;;;;;5094070;28;20036;-69
2023/05/25 14:49:17;;;;;;;6.28;3.45;;;;;;;;;;5076148;28;20051;-69
2023/05/25 14:51:45;;;;;;;9.70;3.17;;;;;;;;;;5077037;28;20041;-69